Time;durP1;ratioP1;P1;durP2;ratioP2;P2;SDS_P1;SDS_P2;PMS_P1;PMS_P2;Temp;Humidity;BMP_temperature;BMP_pressure;BME280_temperature;BME280_humidity;BME280_pressure;Samples;Min_cycle;Max_cycle;Signal;HPM_P1;HPM_P2
2021/12/24 00:01:22;;;;;;;33.78;20.25;;;7.60;99.90;;;;;;7259910;32;20259;-79
2021/12/24 00:05:25;;;;;;;32.40;19.58;;;7.70;99.90;;;;;;7239308;32;20207;-78
2021/12/24 00:09:31;;;;;;;32.17;18.70;;;7.70;99.90;;;;;;7233389;32;20125;-80
2021/12/24 00:13:37;;;;;;;33.28;19.83;;;7.70;99.90;;;;;;7249505;32;20530;-79
2021/12/24 00:17:39;;;;;;;34.28;18.87;;;7.70;99.90;;;;;;7261976;32;20192;-83
2021/12/24 00:39:04;;;;;;;27.40;17.90;;;7.70;99.90;;;;;;7258591;32;20105;-80
2021/12/24 00:43:06;;;;;;;28.05;17.50;;;7.60;99.90;;;;;;7248986;32;20769;-79
2021/12/24 00:47:08;;;;;;;28.55;17.77;;;7.60;99.90;;;;;;7233645;32;20136;-78
2021/12/24 00:51:29;;;;;;;29.80;18.02;;;7.70;99.90;;;;;;7252531;32;20799;-79
2021/12/24 00:55:32;;;;;;;23.87;15.45;;;7.70;99.90;;;;;;7236088;32;20455;-79
2021/12/24 00:59:33;;;;;;;25.37;15.93;;;7.80;99.90;;;;;;7232512;32;20158;-79
2021/12/24 01:03:36;;;;;;;24.90;15.98;;;7.70;99.90;;;;;;7243826;32;20582;-79
2021/12/24 01:07:38;;;;;;;21.02;14.43;;;7.70;99.90;;;;;;7254736;32;20195;-80
2021/12/24 01:11:40;;;;;;;22.77;15.65;;;7.70;99.90;;;;;;7242234;32;20908;-79
2021/12/24 01:15:54;;;;;;;24.25;16.42;;;7.70;99.90;;;;;;7245002;32;20124;-79
2021/12/24 01:20:03;;;;;;;24.05;15.57;;;7.70;99.90;;;;;;7232175;32;20178;-80
2021/12/24 01:24:10;;;;;;;22.83;15.68;;;7.70;99.90;;;;;;7237410;32;20116;-80
2021/12/24 01:42:40;;;;;;;27.00;18.30;;;7.70;99.90;;;;;;7256164;32;20259;-79
2021/12/24 01:45:47;;;;;;;31.27;18.08;;;7.80;99.90;;;;;;7243431;32;20108;-79
2021/12/24 01:49:48;;;;;;;;;;;7.80;99.90;;;;;;7258443;32;20184;-79
2021/12/24 01:53:50;;;;;;;28.90;18.42;;;7.80;99.90;;;;;;7239172;32;20240;-81
2021/12/24 01:57:55;;;;;;;25.85;17.55;;;7.80;99.90;;;;;;7256463;32;20097;-79
2021/12/24 02:01:57;;;;;;;30.30;20.37;;;7.80;99.90;;;;;;7240627;32;20202;-79
2021/12/24 02:05:59;;;;;;;30.25;19.12;;;7.80;99.90;;;;;;7228710;32;20140;-80
2021/12/24 02:10:01;;;;;;;30.52;19.15;;;7.90;99.90;;;;;;7250763;32;20302;-81
2021/12/24 02:14:03;;;;;;;32.00;19.55;;;7.90;99.90;;;;;;7256121;32;20134;-80
2021/12/24 02:30:58;;;;;;;34.90;20.27;;;8.10;99.90;;;;;;7252260;32;20184;-80
2021/12/24 02:35:01;;;;;;;33.60;21.05;;;8.00;99.90;;;;;;7255853;32;20061;-86
2021/12/24 02:39:04;;;;;;;33.08;21.37;;;8.00;99.90;;;;;;7276266;32;20088;-85
2021/12/24 02:43:11;;;;;;;37.75;21.83;;;7.90;99.90;;;;;;7285381;32;20089;-84
2021/12/24 02:47:37;;;;;;;37.75;21.30;;;8.00;99.90;;;;;;7293131;32;20101;-85
2021/12/24 02:56:17;;;;;;;36.15;22.23;;;8.10;99.90;;;;;;7242494;32;20093;-83
2021/12/24 03:00:20;;;;;;;35.95;22.15;;;8.10;99.90;;;;;;7247778;32;20069;-84
2021/12/24 03:04:22;;;;;;;41.92;22.95;;;8.10;99.90;;;;;;7249072;32;20100;-78
2021/12/24 03:08:24;;;;;;;34.40;22.65;;;8.10;99.90;;;;;;7238560;32;20097;-79
2021/12/24 03:12:27;;;;;;;43.87;23.65;;;8.10;99.90;;;;;;7271114;32;20510;-79
2021/12/24 03:16:30;;;;;;;38.22;22.35;;;8.10;99.90;;;;;;7270253;32;20135;-79
2021/12/24 03:20:34;;;;;;;35.83;21.45;;;8.10;99.90;;;;;;7276526;32;20082;-80
2021/12/24 03:24:36;;;;;;;38.85;21.70;;;8.10;99.90;;;;;;7268848;32;20242;-82
2021/12/24 03:28:38;;;;;;;39.95;22.52;;;8.10;99.90;;;;;;7253788;32;20190;-79
2021/12/24 03:32:40;;;;;;;34.75;22.25;;;8.10;99.90;;;;;;7238022;32;20108;-80
2021/12/24 03:36:42;;;;;;;32.33;21.00;;;8.10;99.90;;;;;;7252598;32;20500;-80
2021/12/24 03:40:44;;;;;;;37.38;21.85;;;8.10;99.90;;;;;;7248309;32;20112;-80
2021/12/24 03:44:53;;;;;;;32.60;21.08;;;8.20;99.90;;;;;;7224893;32;20562;-79
2021/12/24 03:48:59;;;;;;;29.95;20.65;;;8.20;99.90;;;;;;7251180;32;20170;-80
2021/12/24 03:53:05;;;;;;;34.03;21.12;;;8.20;99.90;;;;;;7223340;32;20195;-80
2021/12/24 03:57:07;;;;;;;32.10;19.92;;;8.20;99.90;;;;;;7258779;32;20605;-79
2021/12/24 04:01:10;;;;;;;38.42;20.83;;;8.20;99.90;;;;;;7260039;32;20182;-81
2021/12/24 04:05:13;;;;;;;29.48;18.10;;;8.20;99.90;;;;;;7261964;32;20104;-82
2021/12/24 04:09:14;;;;;;;30.77;19.62;;;8.20;99.90;;;;;;7245328;32;20187;-80
2021/12/24 04:13:17;;;;;;;29.02;19.42;;;8.20;99.90;;;;;;7243142;32;20159;-80
2021/12/24 04:17:20;;;;;;;34.80;20.70;;;8.20;99.90;;;;;;7255491;32;20104;-80
2021/12/24 04:25:42;;;;;;;28.45;19.70;;;8.20;99.90;;;;;;7252112;32;20109;-82
2021/12/24 04:29:44;;;;;;;30.17;19.23;;;8.30;99.90;;;;;;7245858;32;20125;-80
2021/12/24 04:33:49;;;;;;;31.48;20.15;;;8.30;99.90;;;;;;7245242;32;20108;-83
2021/12/24 04:51:11;;;;;;;38.45;21.05;;;8.30;99.90;;;;;;7235089;32;20790;-80
2021/12/24 05:03:57;;;;;;;32.42;21.27;;;8.30;99.90;;;;;;7249816;32;20224;-81
2021/12/24 05:12:03;;;;;;;37.75;21.45;;;8.30;99.90;;;;;;7250121;32;20600;-79
2021/12/24 05:16:39;;;;;;;32.53;20.00;;;8.30;99.90;;;;;;7238522;32;20122;-78
2021/12/24 05:24:49;;;;;;;37.88;21.98;;;8.30;99.90;;;;;;7237341;32;20460;-78
2021/12/24 05:28:51;;;;;;;34.15;21.37;;;8.30;99.90;;;;;;7257184;32;20267;-79
2021/12/24 05:32:53;;;;;;;41.70;22.35;;;8.30;99.90;;;;;;7258739;32;20112;-79
2021/12/24 05:36:54;;;;;;;40.15;22.42;;;8.30;99.90;;;;;;7248321;32;20183;-78
2021/12/24 05:40:57;;;;;;;37.30;22.92;;;8.30;99.90;;;;;;7242478;32;20203;-79
2021/12/24 05:45:05;;;;;;;38.13;21.92;;;8.40;99.90;;;;;;7256307;32;20192;-80
2021/12/24 05:49:07;;;;;;;39.17;21.90;;;8.30;99.90;;;;;;7258732;32;20158;-79
2021/12/24 05:53:09;;;;;;;48.78;22.25;;;8.30;99.90;;;;;;7242558;32;20108;-79
2021/12/24 05:57:11;;;;;;;39.20;22.10;;;8.30;99.90;;;;;;7255087;32;20195;-79
2021/12/24 06:01:13;;;;;;;33.97;20.48;;;8.30;99.90;;;;;;7240405;32;20179;-79
2021/12/24 06:05:16;;;;;;;39.00;22.40;;;8.30;99.90;;;;;;7242352;32;20108;-80
2021/12/24 06:09:17;;;;;;;37.92;19.48;;;8.30;99.90;;;;;;7233016;32;20720;-80
2021/12/24 06:13:19;;;;;;;36.90;21.70;;;8.40;99.90;;;;;;7257822;32;20101;-80
2021/12/24 06:17:23;;;;;;;34.05;22.05;;;8.30;99.90;;;;;;7243230;32;20916;-80
2021/12/24 06:21:24;;;;;;;36.95;22.35;;;8.30;99.90;;;;;;7231137;32;20189;-79
2021/12/24 06:25:26;;;;;;;33.38;20.00;;;8.30;99.90;;;;;;7235295;32;20194;-80
2021/12/24 06:29:28;;;;;;;35.67;20.85;;;8.40;99.90;;;;;;7252425;32;20104;-80
2021/12/24 06:33:30;;;;;;;31.92;20.55;;;8.40;99.90;;;;;;7238650;32;20105;-79
2021/12/24 06:37:32;;;;;;;34.95;20.23;;;8.40;99.90;;;;;;7241332;32;20138;-80
2021/12/24 06:41:34;;;;;;;32.88;19.30;;;8.40;99.90;;;;;;7239287;32;20515;-79
2021/12/24 06:45:36;;;;;;;36.00;19.80;;;8.30;99.90;;;;;;7255261;32;20207;-78
2021/12/24 06:49:38;;;;;;;33.90;20.05;;;8.40;99.90;;;;;;7240086;32;20514;-78
2021/12/24 06:53:40;;;;;;;31.75;18.45;;;8.30;99.90;;;;;;7241552;32;20278;-78
2021/12/24 06:57:43;;;;;;;33.65;18.87;;;8.40;99.90;;;;;;7228892;32;20340;-79
2021/12/24 07:01:45;;;;;;;34.20;19.02;;;8.40;99.90;;;;;;7246402;32;20130;-78
2021/12/24 07:05:47;;;;;;;33.92;19.20;;;8.40;99.90;;;;;;7244659;32;20097;-80
2021/12/24 07:09:49;;;;;;;33.42;18.67;;;8.40;99.90;;;;;;7242621;32;20112;-80
2021/12/24 07:13:52;;;;;;;33.95;18.48;;;8.40;99.90;;;;;;7233991;32;20469;-81
2021/12/24 07:17:56;;;;;;;33.88;19.35;;;8.40;99.90;;;;;;7233542;32;20212;-79
2021/12/24 07:21:58;;;;;;;35.17;18.10;;;8.40;99.90;;;;;;7250062;32;20108;-81
2021/12/24 07:26:00;;;;;;;32.92;18.85;;;8.40;99.90;;;;;;7242337;32;20222;-80
2021/12/24 07:30:06;;;;;;;35.05;18.62;;;8.40;99.90;;;;;;7225597;32;20259;-81
2021/12/24 07:34:08;;;;;;;30.95;18.33;;;8.30;99.90;;;;;;7248435;32;20372;-80
2021/12/24 07:38:13;;;;;;;32.38;18.23;;;8.30;99.90;;;;;;7260969;32;20128;-80
2021/12/24 07:42:15;;;;;;;36.92;19.75;;;8.40;99.90;;;;;;7222016;32;20537;-78
2021/12/24 07:46:18;;;;;;;33.03;19.27;;;8.40;99.90;;;;;;7249198;32;20156;-79
2021/12/24 07:54:32;;;;;;;35.15;19.40;;;8.30;99.90;;;;;;7253646;32;20772;-78
2021/12/24 07:58:34;;;;;;;34.15;19.17;;;8.40;99.90;;;;;;7242347;32;20208;-78
2021/12/24 08:02:36;;;;;;;41.10;19.12;;;8.40;99.90;;;;;;7238889;32;20108;-78
2021/12/24 08:06:38;;;;;;;35.45;18.35;;;8.40;99.90;;;;;;7258889;32;20440;-81
2021/12/24 08:10:41;;;;;;;32.03;18.80;;;8.40;99.90;;;;;;7247405;32;20170;-80
2021/12/24 08:14:43;;;;;;;32.80;18.50;;;8.40;99.90;;;;;;7259516;32;20135;-78
2021/12/24 08:18:45;;;;;;;42.05;19.87;;;8.40;99.90;;;;;;7252968;32;20295;-79
2021/12/24 08:22:49;;;;;;;37.72;17.77;;;8.40;99.90;;;;;;7260486;32;20217;-78
2021/12/24 08:26:51;;;;;;;36.33;18.25;;;8.40;99.90;;;;;;7259896;32;20188;-79
2021/12/24 08:31:08;;;;;;;33.65;18.08;;;8.40;99.90;;;;;;7236613;32;20112;-77
2021/12/24 08:35:14;;;;;;;36.72;18.00;;;8.40;99.90;;;;;;7248816;32;20754;-77
2021/12/24 08:39:17;;;;;;;34.03;17.25;;;8.50;99.90;;;;;;7234602;32;20120;-77
2021/12/24 08:43:18;;;;;;;35.65;17.40;;;8.50;99.90;;;;;;7252316;32;20109;-76
2021/12/24 08:47:20;;;;;;;33.20;18.40;;;8.50;99.90;;;;;;7254168;32;20209;-76
2021/12/24 08:51:22;;;;;;;38.55;17.87;;;8.50;99.90;;;;;;7257212;32;20199;-75
2021/12/24 08:55:24;;;;;;;38.00;17.77;;;8.50;99.90;;;;;;7242699;32;20578;-75
2021/12/24 08:59:26;;;;;;;41.88;18.10;;;8.40;99.90;;;;;;7249230;32;20681;-79
2021/12/24 09:03:27;;;;;;;31.87;17.60;;;8.50;99.90;;;;;;7260555;32;20222;-79
2021/12/24 09:07:29;;;;;;;36.85;17.85;;;8.50;99.90;;;;;;7246223;32;20199;-78
2021/12/24 09:11:31;;;;;;;42.85;17.15;;;8.50;99.90;;;;;;7254997;32;20503;-79
2021/12/24 09:15:33;;;;;;;36.55;18.83;;;8.50;99.90;;;;;;7229623;32;20097;-78
2021/12/24 09:19:36;;;;;;;36.72;18.10;;;8.40;99.90;;;;;;7243419;32;20199;-79
2021/12/24 09:23:38;;;;;;;41.13;18.37;;;8.50;99.90;;;;;;7252568;32;20725;-78
2021/12/24 09:27:51;;;;;;;34.17;17.17;;;8.60;99.90;;;;;;7261396;32;20138;-78
2021/12/24 09:31:55;;;;;;;35.97;17.62;;;8.50;99.90;;;;;;7257635;32;20093;-80
2021/12/24 09:35:56;;;;;;;36.50;16.55;;;8.60;99.90;;;;;;7265938;32;20128;-79
2021/12/24 09:39:58;;;;;;;38.92;17.17;;;8.60;99.90;;;;;;7255452;32;20128;-79
2021/12/24 09:44:02;;;;;;;40.90;16.40;;;8.60;99.90;;;;;;7261348;32;20104;-79
2021/12/24 09:48:04;;;;;;;28.48;15.35;;;8.60;99.90;;;;;;7261206;32;20150;-79
2021/12/24 09:52:06;;;;;;;35.30;15.43;;;8.60;99.90;;;;;;7255085;32;20135;-81
2021/12/24 09:56:08;;;;;;;32.60;13.50;;;8.60;99.90;;;;;;7257037;32;20377;-82
2021/12/24 10:00:16;;;;;;;29.17;13.75;;;8.60;99.90;;;;;;7287466;32;20112;-81
2021/12/24 10:04:20;;;;;;;29.50;13.90;;;8.60;99.90;;;;;;7277339;32;20077;-81
2021/12/24 10:08:24;;;;;;;29.87;13.50;;;8.60;99.90;;;;;;7283562;32;20212;-81
2021/12/24 10:12:27;;;;;;;29.70;13.52;;;8.70;99.90;;;;;;7270063;32;20131;-77
2021/12/24 10:16:29;;;;;;;24.98;13.05;;;8.70;99.90;;;;;;7267391;32;20275;-79
2021/12/24 10:20:31;;;;;;;26.77;12.98;;;8.80;99.90;;;;;;7292327;32;20158;-80
2021/12/24 10:24:33;;;;;;;25.67;12.63;;;9.00;99.90;;;;;;7237877;32;20219;-80
2021/12/24 10:28:34;;;;;;;29.60;11.95;;;9.00;99.90;;;;;;7261630;32;20167;-82
2021/12/24 10:32:39;;;;;;;26.00;11.52;;;8.90;99.90;;;;;;7256739;32;20290;-78
2021/12/24 10:36:50;;;;;;;30.02;13.05;;;8.80;99.90;;;;;;7236506;32;20139;-79
2021/12/24 10:41:05;;;;;;;24.63;12.85;;;8.90;99.90;;;;;;7251550;32;20142;-75
2021/12/24 10:45:15;;;;;;;23.70;11.18;;;8.90;99.90;;;;;;7236838;32;20117;-81
2021/12/24 10:49:35;;;;;;;24.65;12.35;;;8.90;99.90;;;;;;7238920;32;20366;-78
2021/12/24 10:54:06;;;;;;;27.73;11.23;;;8.90;99.90;;;;;;7248480;32;20170;-78
2021/12/24 10:58:15;;;;;;;25.77;11.68;;;8.90;99.90;;;;;;7245639;32;20681;-80
2021/12/24 11:02:18;;;;;;;28.15;11.07;;;8.80;99.90;;;;;;7248811;32;20115;-79
2021/12/24 11:06:21;;;;;;;29.05;11.63;;;8.80;99.90;;;;;;7230874;32;20185;-78
2021/12/24 11:10:27;;;;;;;26.30;10.73;;;8.90;99.90;;;;;;7251037;32;20153;-78
2021/12/24 11:14:31;;;;;;;23.23;10.65;;;9.00;99.90;;;;;;7243904;32;20140;-79
2021/12/24 11:18:35;;;;;;;24.17;11.52;;;9.00;99.90;;;;;;7241279;32;20202;-78
2021/12/24 11:22:59;;;;;;;23.70;11.40;;;9.00;99.90;;;;;;7250770;32;20173;-78
2021/12/24 11:27:01;;;;;;;24.02;10.45;;;9.00;99.90;;;;;;7245449;32;20536;-78
2021/12/24 11:31:10;;;;;;;23.58;12.10;;;8.90;99.90;;;;;;7242469;32;20632;-79
2021/12/24 11:35:13;;;;;;;31.65;11.68;;;8.90;99.90;;;;;;7248658;32;20242;-79
2021/12/24 11:39:15;;;;;;;22.10;11.05;;;8.90;99.90;;;;;;7239834;32;20226;-78
2021/12/24 11:43:22;;;;;;;24.25;11.25;;;8.90;99.90;;;;;;7244608;32;20176;-79
2021/12/24 11:47:24;;;;;;;21.87;11.27;;;8.90;99.90;;;;;;7227841;32;20156;-78
2021/12/24 11:51:40;;;;;;;27.02;12.63;;;8.90;99.90;;;;;;7244162;32;20128;-77
2021/12/24 11:55:48;;;;;;;26.52;10.82;;;8.80;99.90;;;;;;7236772;32;20237;-79
2021/12/24 11:59:50;;;;;;;;;;;8.80;99.90;;;;;;7233752;32;20718;-77
2021/12/24 12:03:54;;;;;;;24.45;11.43;;;8.80;99.90;;;;;;7234204;32;20118;-76
2021/12/24 12:08:25;;;;;;;24.98;12.02;;;8.90;99.90;;;;;;7232918;32;20208;-76
2021/12/24 12:12:35;;;;;;;27.77;11.55;;;9.00;99.90;;;;;;7248563;32;20136;-78
2021/12/24 12:16:54;;;;;;;23.42;11.82;;;8.90;99.90;;;;;;7249708;32;20164;-78
2021/12/24 12:21:13;;;;;;;21.27;12.10;;;8.80;99.90;;;;;;7245150;32;20203;-77
2021/12/24 12:25:34;;;;;;;24.45;12.98;;;8.80;99.90;;;;;;7248900;32;20135;-76
2021/12/24 12:29:44;;;;;;;27.08;12.32;;;8.90;99.90;;;;;;7247785;32;20132;-79
2021/12/24 12:33:46;;;;;;;27.25;11.63;;;8.90;99.90;;;;;;7245553;32;20306;-81
2021/12/24 12:37:53;;;;;;;29.00;12.40;;;8.90;99.90;;;;;;7259442;32;20566;-79
2021/12/24 12:41:55;;;;;;;;;;;8.90;99.90;;;;;;7244693;32;20206;-80
2021/12/24 12:46:02;;;;;;;28.15;13.45;;;8.80;99.90;;;;;;7233595;32;20004;-78
2021/12/24 12:50:16;;;;;;;22.90;14.13;;;8.90;99.90;;;;;;7260400;32;20132;-78
2021/12/24 12:54:29;;;;;;;26.92;14.98;;;8.90;99.90;;;;;;7260761;32;20101;-78
2021/12/24 12:58:31;;;;;;;30.60;13.95;;;8.90;99.90;;;;;;7258864;32;20495;-78
2021/12/24 13:03:08;;;;;;;25.15;13.23;;;8.80;99.90;;;;;;7245152;32;20233;-77
2021/12/24 13:07:10;;;;;;;23.25;12.43;;;8.90;99.90;;;;;;7259372;32;20134;-78
2021/12/24 13:11:17;;;;;;;33.70;12.98;;;8.90;99.90;;;;;;7247904;32;20088;-78
2021/12/24 13:15:20;;;;;;;32.58;12.48;;;8.90;99.90;;;;;;7260932;32;20140;-79
2021/12/24 13:19:29;;;;;;;30.58;13.15;;;8.90;99.90;;;;;;7256212;32;20116;-79
2021/12/24 13:23:34;;;;;;;24.33;12.48;;;8.90;99.90;;;;;;7256408;32;20227;-79
2021/12/24 13:27:40;;;;;;;23.92;12.45;;;8.90;99.90;;;;;;7262701;32;20124;-79
2021/12/24 13:31:51;;;;;;;23.48;11.45;;;9.00;99.90;;;;;;7226243;32;20140;-80
2021/12/24 13:35:53;;;;;;;27.77;11.85;;;9.00;99.90;;;;;;7254396;32;20217;-79
2021/12/24 13:39:55;;;;;;;20.27;10.55;;;9.00;99.90;;;;;;7243373;32;20484;-79
2021/12/24 13:43:58;;;;;;;20.35;10.02;;;9.00;99.90;;;;;;7250470;32;20668;-79
2021/12/24 13:48:07;;;;;;;21.67;10.75;;;9.00;99.90;;;;;;7243985;32;20120;-79
2021/12/24 13:56:51;;;;;;;25.05;11.23;;;9.10;99.90;;;;;;7254291;32;20291;-80
2021/12/24 14:00:57;;;;;;;21.77;10.27;;;9.10;99.90;;;;;;7252183;32;20196;-79
2021/12/24 14:05:00;;;;;;;24.58;10.73;;;9.10;99.90;;;;;;7250368;32;20105;-79
2021/12/24 14:09:31;;;;;;;24.95;10.18;;;9.10;99.90;;;;;;7250069;32;20195;-79
2021/12/24 14:13:37;;;;;;;24.98;10.23;;;9.10;99.90;;;;;;7255713;32;20125;-78
2021/12/24 14:22:11;;;;;;;25.55;10.65;;;9.00;99.90;;;;;;7231602;32;20896;-78
2021/12/24 14:26:13;;;;;;;24.37;10.55;;;9.10;99.90;;;;;;7239405;32;20312;-79
2021/12/24 14:30:21;;;;;;;17.85;10.25;;;9.00;99.90;;;;;;7245304;32;20610;-78
2021/12/24 14:34:45;;;;;;;26.73;10.27;;;8.90;99.90;;;;;;7226673;32;20596;-78
2021/12/24 14:38:50;;;;;;;21.17;10.55;;;8.80;99.90;;;;;;7236671;32;20200;-78
2021/12/24 14:42:53;;;;;;;20.52;10.77;;;8.80;99.90;;;;;;7244866;32;20139;-78
2021/12/24 14:46:58;;;;;;;19.95;10.48;;;8.80;99.90;;;;;;7254398;32;20131;-78
2021/12/24 14:51:07;;;;;;;21.00;10.35;;;8.70;99.90;;;;;;7252407;32;20174;-78
2021/12/24 14:55:17;;;;;;;22.30;10.82;;;8.60;99.90;;;;;;7255523;32;20470;-78
2021/12/24 14:59:18;;;;;;;22.30;11.90;;;8.60;99.90;;;;;;7254710;32;20585;-78
2021/12/24 15:03:21;;;;;;;25.25;12.57;;;8.40;99.90;;;;;;7254837;32;20139;-78
2021/12/24 15:07:32;;;;;;;28.08;12.18;;;8.40;99.90;;;;;;7253648;32;20222;-78
2021/12/24 15:11:34;;;;;;;28.27;12.80;;;8.40;99.90;;;;;;7255121;32;20215;-78
2021/12/24 15:15:36;;;;;;;18.48;11.85;;;8.30;99.90;;;;;;7255183;32;20120;-78
2021/12/24 15:19:38;;;;;;;25.80;12.13;;;8.30;99.90;;;;;;7227173;32;20773;-77
2021/12/24 15:23:39;;;;;;;26.25;12.93;;;8.30;99.90;;;;;;7237306;32;20154;-79
2021/12/24 15:27:41;;;;;;;25.88;13.13;;;8.20;99.90;;;;;;7229614;32;20176;-77
2021/12/24 15:31:44;;;;;;;25.70;14.65;;;8.20;99.90;;;;;;7242933;32;20629;-78
2021/12/24 15:35:52;;;;;;;32.60;13.70;;;8.20;99.90;;;;;;7232378;32;20148;-79
2021/12/24 15:39:58;;;;;;;23.12;14.93;;;8.20;99.90;;;;;;7238865;32;20124;-79
2021/12/24 15:44:00;;;;;;;32.60;15.52;;;8.20;99.90;;;;;;7232824;32;20172;-80
2021/12/24 15:48:03;;;;;;;30.15;15.05;;;8.10;99.90;;;;;;7250192;32;20160;-78
2021/12/24 15:52:05;;;;;;;24.80;14.40;;;8.20;99.90;;;;;;7241593;32;20170;-78
2021/12/24 15:56:08;;;;;;;29.40;15.63;;;8.20;99.90;;;;;;7257866;32;20172;-79
2021/12/24 16:00:10;;;;;;;27.08;15.18;;;8.20;99.90;;;;;;7246046;32;20130;-80
2021/12/24 16:04:12;;;;;;;29.58;14.52;;;8.20;99.90;;;;;;7248767;32;20117;-81
2021/12/24 16:08:15;;;;;;;28.48;13.70;;;8.10;99.90;;;;;;7253063;32;20231;-79
2021/12/24 16:12:17;;;;;;;29.20;15.73;;;8.10;99.90;;;;;;7241197;32;20139;-79
2021/12/24 16:16:23;;;;;;;27.70;15.90;;;8.30;99.90;;;;;;7238401;32;20170;-80
2021/12/24 16:20:25;;;;;;;28.02;15.63;;;8.20;99.90;;;;;;7256844;32;20116;-80
2021/12/24 16:24:28;;;;;;;26.85;15.02;;;8.20;99.90;;;;;;7254359;32;20124;-80
2021/12/24 16:28:29;;;;;;;35.45;18.77;;;8.30;99.90;;;;;;7245614;32;20124;-80
2021/12/24 16:32:33;;;;;;;30.75;15.10;;;8.20;99.90;;;;;;7248420;32;20184;-80
2021/12/24 16:36:35;;;;;;;41.72;18.20;;;8.20;99.90;;;;;;7245954;32;20170;-79
2021/12/24 16:40:37;;;;;;;32.53;16.52;;;8.10;99.90;;;;;;7245351;32;20817;-78
2021/12/24 16:44:39;;;;;;;30.73;16.70;;;8.20;99.90;;;;;;7243902;32;20138;-78
2021/12/24 16:48:42;;;;;;;30.77;18.15;;;8.20;99.90;;;;;;7242514;32;20136;-78
2021/12/24 16:52:45;;;;;;;37.80;24.60;;;8.20;99.90;;;;;;7245583;32;20192;-79
2021/12/24 16:56:47;;;;;;;30.50;16.23;;;8.20;99.90;;;;;;7243901;32;20564;-78
2021/12/24 17:00:52;;;;;;;33.80;17.08;;;8.20;99.90;;;;;;7253103;32;20124;-79
2021/12/24 17:04:54;;;;;;;37.40;18.10;;;8.20;99.90;;;;;;7250963;32;20204;-78
2021/12/24 17:08:56;;;;;;;29.02;18.08;;;8.20;99.90;;;;;;7256078;32;20166;-78
2021/12/24 17:12:58;;;;;;;32.88;17.87;;;8.30;99.90;;;;;;7254830;32;20136;-79
2021/12/24 17:17:06;;;;;;;31.62;16.65;;;8.30;99.90;;;;;;7265131;32;20167;-78
2021/12/24 17:21:07;;;;;;;35.80;17.83;;;8.20;99.90;;;;;;7259771;32;20153;-78
2021/12/24 17:25:11;;;;;;;40.50;19.73;;;8.10;99.90;;;;;;7241426;32;20227;-78
2021/12/24 17:29:15;;;;;;;42.92;20.80;;;8.10;99.90;;;;;;7261684;32;20127;-78
2021/12/24 17:33:18;;;;;;;38.28;19.75;;;8.10;99.90;;;;;;7254190;32;20120;-80
2021/12/24 17:37:22;;;;;;;36.63;19.00;;;8.00;99.90;;;;;;7254113;32;20408;-77
2021/12/24 17:41:23;;;;;;;35.63;19.15;;;7.90;99.90;;;;;;7251961;32;20979;-77
2021/12/24 17:45:27;;;;;;;38.65;19.98;;;7.80;99.90;;;;;;7243248;32;20188;-78
2021/12/24 17:49:30;;;;;;;39.08;20.52;;;7.80;99.90;;;;;;7270847;32;20099;-78
2021/12/24 17:53:32;;;;;;;33.42;19.83;;;7.70;99.90;;;;;;7275311;32;20284;-78
2021/12/24 17:57:34;;;;;;;38.70;19.98;;;7.70;99.90;;;;;;7295601;32;20136;-78
2021/12/24 18:01:35;;;;;;;48.65;22.52;;;7.70;99.90;;;;;;7296342;32;20106;-78
2021/12/24 18:05:40;;;;;;;40.55;20.20;;;7.80;99.90;;;;;;7294275;32;20099;-78
2021/12/24 18:09:42;;;;;;;35.25;20.83;;;7.70;99.90;;;;;;7283292;32;20065;-78
2021/12/24 18:13:47;;;;;;;41.67;21.60;;;7.70;99.90;;;;;;7296431;32;20113;-78
2021/12/24 18:17:49;;;;;;;38.92;20.95;;;7.80;99.90;;;;;;7275215;32;20102;-79
2021/12/24 18:21:51;;;;;;;38.17;19.77;;;7.90;99.90;;;;;;7284190;32;20080;-78
2021/12/24 18:25:53;;;;;;;42.13;21.33;;;7.90;99.90;;;;;;7282688;32;20077;-78
2021/12/24 18:29:55;;;;;;;39.85;21.75;;;7.90;99.90;;;;;;7284766;32;20073;-78
2021/12/24 18:33:57;;;;;;;41.33;22.85;;;8.00;99.90;;;;;;7226373;32;20173;-78
2021/12/24 18:38:10;;;;;;;43.08;23.55;;;7.90;99.90;;;;;;7267448;32;20170;-77
2021/12/24 18:42:12;;;;;;;46.00;23.20;;;7.90;99.90;;;;;;7250539;32;20536;-78
2021/12/24 18:46:14;;;;;;;46.42;22.42;;;7.90;99.90;;;;;;7247997;32;20198;-77
2021/12/24 18:50:18;;;;;;;39.83;21.33;;;7.90;99.90;;;;;;7253059;32;20741;-77
2021/12/24 18:54:20;;;;;;;40.47;21.40;;;7.90;99.90;;;;;;7241626;32;20211;-77
2021/12/24 18:58:23;;;;;;;46.97;22.37;;;7.90;99.90;;;;;;7233511;32;20368;-77
2021/12/24 19:02:25;;;;;;;43.83;22.80;;;7.90;99.90;;;;;;7228340;32;20275;-77
2021/12/24 19:06:27;;;;;;;41.30;21.80;;;7.90;99.90;;;;;;7253295;32;20222;-78
2021/12/24 19:10:30;;;;;;;42.25;22.15;;;8.00;99.90;;;;;;7251245;32;20108;-75
2021/12/24 19:14:32;;;;;;;43.53;23.38;;;8.00;99.90;;;;;;7245610;32;20713;-76
2021/12/24 19:18:35;;;;;;;40.80;21.77;;;8.00;99.90;;;;;;7250548;32;20596;-78
2021/12/24 19:22:37;;;;;;;37.25;21.15;;;8.00;99.90;;;;;;7252545;32;20134;-78
2021/12/24 19:26:39;;;;;;;43.53;22.17;;;8.10;99.90;;;;;;7234628;32;20127;-78
2021/12/24 19:30:46;;;;;;;43.92;23.15;;;8.00;99.90;;;;;;7253251;32;20169;-78
2021/12/24 19:34:48;;;;;;;41.85;22.67;;;7.90;99.90;;;;;;7227968;32;20151;-78
2021/12/24 19:38:51;;;;;;;46.28;23.25;;;7.90;99.90;;;;;;7252965;32;20787;-78
2021/12/24 19:42:53;;;;;;;47.78;23.08;;;7.90;99.90;;;;;;7235180;32;20247;-76
2021/12/24 19:46:55;;;;;;;45.97;23.50;;;7.90;99.90;;;;;;7247494;32;20172;-76
2021/12/24 19:50:59;;;;;;;50.35;25.10;;;7.80;99.90;;;;;;7241521;32;20108;-75
2021/12/24 19:55:03;;;;;;;51.90;25.92;;;7.80;99.90;;;;;;7229295;32;20207;-76
2021/12/24 19:59:06;;;;;;;47.72;26.00;;;7.70;99.90;;;;;;7230836;32;20116;-76
2021/12/24 20:03:09;;;;;;;56.55;26.73;;;7.70;99.90;;;;;;7258341;32;20120;-75
2021/12/24 20:07:11;;;;;;;50.55;26.58;;;7.70;99.90;;;;;;7259634;32;20117;-77
2021/12/24 20:11:14;;;;;;;35.08;20.48;;;7.50;99.90;;;;;;7256140;32;20550;-75
2021/12/24 20:15:19;;;;;;;24.10;14.87;;;7.30;99.90;;;;;;7259984;32;20108;-77
2021/12/24 20:19:21;;;;;;;18.50;11.82;;;7.10;99.90;;;;;;7247713;32;20139;-77
2021/12/24 20:23:24;;;;;;;17.15;12.30;;;7.10;99.90;;;;;;7247086;32;20139;-79
2021/12/24 20:27:26;;;;;;;14.18;9.73;;;7.00;99.90;;;;;;7239505;32;20121;-77
2021/12/24 20:31:27;;;;;;;14.45;9.13;;;6.80;99.90;;;;;;7247202;32;20178;-77
2021/12/24 20:35:30;;;;;;;11.90;8.93;;;6.80;99.90;;;;;;7258339;32;20636;-78
2021/12/24 20:39:32;;;;;;;9.18;7.85;;;6.60;99.90;;;;;;7254898;32;20113;-76
2021/12/24 20:43:35;;;;;;;9.80;8.00;;;6.50;99.90;;;;;;7234635;32;20147;-78
2021/12/24 20:47:39;;;;;;;12.48;8.45;;;6.30;99.90;;;;;;7256507;32;20120;-77
2021/12/24 20:51:44;;;;;;;9.18;7.95;;;6.20;99.90;;;;;;7241869;32;20243;-77
2021/12/24 20:55:46;;;;;;;8.82;7.40;;;6.20;99.90;;;;;;7240389;32;20214;-78
2021/12/24 20:59:48;;;;;;;9.85;7.28;;;6.10;99.90;;;;;;7244043;32;20124;-77
2021/12/24 21:03:50;;;;;;;11.10;9.27;;;6.00;99.90;;;;;;7257939;32;20132;-77
2021/12/24 21:07:52;;;;;;;57.10;43.17;;;5.90;99.90;;;;;;7232412;32;20112;-80
2021/12/24 21:11:54;;;;;;;11.00;8.65;;;5.90;99.90;;;;;;7245245;32;20695;-78
2021/12/24 21:15:56;;;;;;;10.82;8.85;;;5.90;99.90;;;;;;7233058;32;20539;-78
2021/12/24 21:19:57;;;;;;;12.10;9.63;;;5.90;99.90;;;;;;7244581;32;20229;-78
2021/12/24 21:24:02;;;;;;;14.82;11.38;;;5.80;99.90;;;;;;7244790;32;20142;-76
2021/12/24 21:28:05;;;;;;;15.45;12.32;;;5.80;99.90;;;;;;7244468;32;20109;-78
2021/12/24 21:32:07;;;;;;;11.45;9.10;;;5.80;99.90;;;;;;7244809;32;20230;-78
2021/12/24 21:36:09;;;;;;;12.10;9.32;;;5.80;99.90;;;;;;7239100;32;20173;-79
2021/12/24 21:40:15;;;;;;;14.48;10.30;;;5.70;99.90;;;;;;7258138;32;20808;-77
2021/12/24 21:44:17;;;;;;;23.55;15.38;;;5.70;99.90;;;;;;7240888;32;20814;-78
2021/12/24 21:48:20;;;;;;;12.65;8.52;;;5.70;99.90;;;;;;7244999;32;20432;-78
2021/12/24 21:52:22;;;;;;;9.38;7.28;;;5.70;99.90;;;;;;7257572;32;20239;-79
2021/12/24 21:56:24;;;;;;;9.93;7.68;;;5.60;99.90;;;;;;7256730;32;20121;-79
2021/12/24 22:00:27;;;;;;;16.92;11.52;;;5.70;99.90;;;;;;7257957;32;20166;-80
2021/12/24 22:08:43;;;;;;;25.67;20.40;;;5.60;99.90;;;;;;7257833;32;20121;-78
2021/12/24 22:12:45;;;;;;;13.20;11.18;;;5.50;99.90;;;;;;7258519;32;20135;-77
2021/12/24 22:16:49;;;;;;;11.05;8.55;;;5.50;99.90;;;;;;7232539;32;20133;-79
2021/12/24 22:20:51;;;;;;;10.80;9.50;;;5.40;99.90;;;;;;7245324;32;20185;-78
2021/12/24 22:24:53;;;;;;;8.00;6.32;;;5.40;99.90;;;;;;7238853;32;20215;-78
2021/12/24 22:28:54;;;;;;;10.48;7.12;;;5.40;99.90;;;;;;7252411;32;20261;-76
2021/12/24 22:32:56;;;;;;;9.40;7.75;;;5.40;99.90;;;;;;7243777;32;20839;-78
2021/12/24 22:36:59;;;;;;;11.10;8.05;;;5.40;99.90;;;;;;7234036;32;20197;-78